Rome, Oregon
Current Conditions -  °F | °C
As of 3:53 PM on Thursday 23 Oct 2014 (Local Time) from KBNO Reporting Station
Light Rain Light Rain  
Wind Chill: 50°   Ceiling: 5500
Heat Index: 50°   Visibility: 10mi
Dew Point: 44°   Wind: 14mph
Humidity: 80%   Direction: 190°S
Pressure: 30.01"   Gusts: NA
Location:  42.59°N, 117.86°W
Report Text: KBNO 232153Z AUTO 19012KT 10SM -RA OVC055 10/07 A3001 RMK AO2 SLP153 P0002 T01000067
Loading
Personal Weather Stations






























Interactive Weather Map
Tropical Storm Tracking
New forecast layout! Learn more

10-Day Weather Forecast

Advertisements
Track Severe Weather on mobile